createdAt,value
2022-10-04T00:01:13.732Z,102369.19
2022-10-04T00:03:44.250Z,102374.81
2022-10-04T00:06:21.797Z,102360.38
2022-10-04T00:08:58.730Z,102356.31
2022-10-04T00:11:32.602Z,102351.56
2022-10-04T00:14:05.622Z,102353.31
2022-10-04T00:16:36.268Z,102328.31
2022-10-04T00:19:14.963Z,102348.56
2022-10-04T00:21:56.563Z,102336.78
2022-10-04T00:24:34.587Z,102346.22
2022-10-04T00:27:23.630Z,102344.06
2022-10-04T00:30:22.090Z,102346.34
2022-10-04T00:33:03.241Z,102341.91
2022-10-04T00:35:29.473Z,102341.56
2022-10-04T00:38:00.294Z,102338.75
2022-10-04T00:40:35.232Z,102341.22
2022-10-04T00:43:16.179Z,102330.59
2022-10-04T00:45:47.413Z,102334.97
2022-10-04T00:48:45.141Z,102307.31
2022-10-04T00:51:31.304Z,102314.16
2022-10-04T00:54:08.843Z,102300.91
2022-10-04T00:56:41.995Z,102303.19
2022-10-04T00:59:11.226Z,102306.44
2022-10-04T01:01:38.161Z,102299.91
2022-10-04T01:04:13.806Z,102295.13
2022-10-04T01:06:41.910Z,102303.75
2022-10-04T01:09:12.106Z,102300.97
2022-10-04T01:11:44.866Z,102298.97
2022-10-04T01:14:21.008Z,102291.63
2022-10-04T01:16:47.666Z,102303.22
2022-10-04T01:19:26.270Z,102295.34
2022-10-04T01:22:07.573Z,102284.56
2022-10-04T01:24:36.571Z,102290.09
2022-10-04T01:27:03.833Z,102288.38
2022-10-04T01:29:31.598Z,102289.19
2022-10-04T01:32:01.723Z,102285.09
2022-10-04T01:34:30.389Z,102291.63
2022-10-04T01:36:59.190Z,102269.69
2022-10-04T01:39:28.060Z,102280.19
2022-10-04T01:42:05.049Z,102268.25
2022-10-04T01:44:31.303Z,102265.25
2022-10-04T01:47:02.969Z,102252.34
2022-10-04T01:49:33.128Z,102261.88
2022-10-04T01:52:06.253Z,102256.34
2022-10-04T01:54:36.606Z,102257.50
2022-10-04T01:57:10.844Z,102241.19
2022-10-04T01:59:46.452Z,102235.47
2022-10-04T02:02:23.680Z,102229.31
2022-10-04T02:04:54.673Z,102229.16
2022-10-04T02:07:22.658Z,102228.06
2022-10-04T02:09:56.441Z,102220.22
2022-10-04T02:12:22.991Z,102232.38
2022-10-04T02:14:52.505Z,102235.53
2022-10-04T02:17:26.705Z,102239.13
2022-10-04T02:19:54.069Z,102241.91
2022-10-04T02:22:22.934Z,102238.00
2022-10-04T02:24:50.354Z,102220.06
2022-10-04T02:27:16.951Z,102221.50
2022-10-04T02:29:43.555Z,102220.06
2022-10-04T02:32:11.086Z,102201.91
2022-10-04T02:34:38.581Z,102199.47
2022-10-04T02:37:06.914Z,102186.41
2022-10-04T02:39:53.171Z,102192.63
2022-10-04T02:42:39.749Z,102194.31
2022-10-04T02:45:36.462Z,102192.53
2022-10-04T02:48:13.348Z,102191.38
2022-10-04T02:50:46.705Z,102198.94
2022-10-04T02:53:21.521Z,102193.06
2022-10-04T02:55:49.243Z,102180.97
2022-10-04T02:58:20.175Z,102187.66
2022-10-04T03:00:50.206Z,102187.66
2022-10-04T03:03:26.862Z,102181.28
2022-10-04T03:06:07.171Z,102186.38
2022-10-04T03:08:44.003Z,102186.53
2022-10-04T03:11:12.871Z,102179.69
2022-10-04T03:13:44.364Z,102169.84
2022-10-04T03:16:10.823Z,102173.09
2022-10-04T03:18:37.678Z,102148.41
2022-10-04T03:21:07.832Z,102163.28
2022-10-04T03:23:35.334Z,102151.81
2022-10-04T03:26:32.739Z,102135.16
2022-10-04T03:29:00.028Z,102136.13
2022-10-04T03:31:28.071Z,102153.56
2022-10-04T03:33:56.281Z,102145.53
2022-10-04T03:36:25.463Z,102148.16
2022-10-04T03:38:55.122Z,102155.06
2022-10-04T03:41:23.607Z,102148.53
2022-10-04T03:43:50.967Z,102152.06
2022-10-04T03:46:19.666Z,102142.75
2022-10-04T03:48:49.832Z,102127.94
2022-10-04T03:51:22.141Z,102145.75
2022-10-04T03:53:54.703Z,102129.44
2022-10-04T03:56:31.717Z,102126.66
2022-10-04T03:58:58.735Z,102134.81
2022-10-04T04:01:51.154Z,102125.69
2022-10-04T04:04:27.348Z,102117.84
2022-10-04T04:07:02.820Z,102131.59
2022-10-04T04:09:43.854Z,102138.81
2022-10-04T04:12:22.070Z,102120.22
2022-10-04T04:14:50.462Z,102138.69
2022-10-04T04:17:25.831Z,102127.59
2022-10-04T04:19:54.621Z,102138.06
2022-10-04T04:22:21.487Z,102127.91
2022-10-04T04:24:48.411Z,102125.00
2022-10-04T04:27:17.710Z,102119.13
2022-10-04T04:29:52.719Z,102126.97
2022-10-04T04:32:32.021Z,102117.66
2022-10-04T04:35:00.767Z,102122.91
2022-10-04T04:37:27.196Z,102109.84
2022-10-04T04:39:53.740Z,102106.06
2022-10-04T04:42:35.637Z,102088.28
2022-10-04T04:45:06.090Z,102110.19
2022-10-04T04:47:46.414Z,102099.72
2022-10-04T04:50:22.065Z,102099.88
2022-10-04T04:53:16.223Z,102102.50
2022-10-04T04:56:02.677Z,102100.22
2022-10-04T04:58:38.684Z,102118.34
2022-10-04T05:01:23.816Z,102111.16
2022-10-04T05:04:08.222Z,102111.81
2022-10-04T05:06:36.674Z,102106.25
2022-10-04T05:09:04.998Z,102115.09
2022-10-04T05:11:36.213Z,102124.72
2022-10-04T05:14:11.019Z,102113.47
2022-10-04T05:16:48.871Z,102106.75
2022-10-04T05:19:35.469Z,102102.00
2022-10-04T05:22:09.020Z,102104.28
2022-10-04T05:24:40.261Z,102106.09
2022-10-04T05:27:17.024Z,102112.47
2022-10-04T05:30:19.895Z,102104.16
2022-10-04T05:32:46.188Z,102105.47
2022-10-04T05:35:20.685Z,102104.81
2022-10-04T05:38:04.559Z,102106.59
2022-10-04T05:40:56.662Z,102107.56
2022-10-04T05:43:36.550Z,102095.16
2022-10-04T05:46:24.862Z,102103.50
2022-10-04T05:49:18.194Z,102106.13
2022-10-04T05:51:58.161Z,102100.53
2022-10-04T05:54:27.205Z,102112.00
2022-10-04T05:57:18.251Z,102118.38
2022-10-04T06:00:17.127Z,102116.06
2022-10-04T06:03:13.438Z,102122.59
2022-10-04T06:05:49.113Z,102129.97
2022-10-04T06:08:27.014Z,102121.78
2022-10-04T06:11:09.283Z,102120.00
2022-10-04T06:14:00.325Z,102116.06
2022-10-04T06:16:57.290Z,102121.78
2022-10-04T06:20:01.028Z,102119.34
2022-10-04T06:22:27.426Z,102107.59
2022-10-04T06:25:00.204Z,102114.75
2022-10-04T06:27:40.810Z,102113.75
2022-10-04T06:30:13.491Z,102106.91
2022-10-04T06:33:10.773Z,102105.25
2022-10-04T06:35:59.710Z,102111.28
2022-10-04T06:38:36.673Z,102107.50
2022-10-04T06:41:16.159Z,102113.84
2022-10-04T06:43:54.289Z,102108.59
2022-10-04T06:47:05.680Z,102101.22
2022-10-04T06:49:56.733Z,102101.50
2022-10-04T06:52:46.368Z,102086.44
2022-10-04T06:55:27.378Z,102093.66
2022-10-04T06:58:24.754Z,102088.75
2022-10-04T07:01:03.538Z,102100.94
2022-10-04T07:03:56.194Z,102097.63
2022-10-04T07:06:29.817Z,102097.97
2022-10-04T07:08:59.449Z,102084.22
2022-10-04T07:11:47.402Z,102087.00
2022-10-04T07:14:19.652Z,102084.25
2022-10-04T07:16:51.038Z,102095.78
2022-10-04T07:19:28.257Z,102081.59
2022-10-04T07:21:54.514Z,102089.03
2022-10-04T07:24:32.027Z,102071.84
2022-10-04T07:27:01.774Z,102065.66
2022-10-04T07:29:37.739Z,102075.06
2022-10-04T07:32:27.952Z,102074.84
2022-10-04T07:35:06.502Z,102070.78
2022-10-04T07:38:09.999Z,102070.66
2022-10-04T07:41:05.188Z,102079.84
2022-10-04T07:43:35.620Z,102076.06
2022-10-04T07:46:13.255Z,102091.31
2022-10-04T07:48:42.922Z,102089.22
2022-10-04T07:51:26.382Z,102106.50
2022-10-04T07:54:04.840Z,102094.94
2022-10-04T07:56:37.417Z,102110.72
2022-10-04T07:59:25.930Z,102110.00
2022-10-04T08:02:14.076Z,102102.75
2022-10-04T08:05:06.718Z,102095.72
2022-10-04T08:07:54.779Z,102098.47
2022-10-04T08:11:03.091Z,102106.38
2022-10-04T08:13:51.859Z,102094.03
2022-10-04T08:16:53.641Z,102087.72
2022-10-04T08:19:51.075Z,102097.94
2022-10-04T08:22:34.227Z,102104.38
2022-10-04T08:25:37.399Z,102106.88
2022-10-04T08:28:37.919Z,102109.41
2022-10-04T08:31:26.836Z,102098.41
2022-10-04T08:34:06.767Z,102087.81
2022-10-04T08:36:47.659Z,102098.44
2022-10-04T08:39:41.426Z,102088.19
2022-10-04T08:42:27.414Z,102089.50
2022-10-04T08:45:37.955Z,102097.03
2022-10-04T08:48:13.234Z,102075.59
2022-10-04T08:51:17.936Z,102080.44
2022-10-04T08:54:03.062Z,102082.41
2022-10-04T08:56:53.734Z,102083.63
2022-10-04T08:59:38.830Z,102080.34
2022-10-04T09:02:24.076Z,102082.91
2022-10-04T09:05:13.710Z,102086.88
2022-10-04T09:07:57.174Z,102080.09
2022-10-04T09:10:37.223Z,102084.22
2022-10-04T09:13:26.842Z,102085.03
2022-10-04T09:15:55.227Z,102079.34
2022-10-04T09:18:38.038Z,102070.66
2022-10-04T09:21:12.175Z,102072.22
2022-10-04T09:24:10.569Z,102074.00
2022-10-04T09:26:45.872Z,102075.19
2022-10-04T09:29:30.694Z,102068.53
2022-10-04T09:32:30.171Z,102073.94
2022-10-04T09:35:14.880Z,102068.69
2022-10-04T09:37:44.212Z,102072.69
2022-10-04T09:40:47.175Z,102070.66
2022-10-04T09:43:48.885Z,102068.56
2022-10-04T09:46:17.908Z,102072.56
2022-10-04T09:49:17.061Z,102071.50
2022-10-04T09:52:20.362Z,102060.88
2022-10-04T09:55:11.490Z,102064.13
2022-10-04T09:57:48.070Z,102059.66
2022-10-04T10:00:23.039Z,102064.56
2022-10-04T10:03:25.182Z,102051.84
2022-10-04T10:06:10.230Z,102058.13
2022-10-04T10:08:46.168Z,102045.53
2022-10-04T10:11:21.453Z,102051.09
2022-10-04T10:14:12.394Z,102052.56
2022-10-04T10:16:58.897Z,102041.59
2022-10-04T10:19:44.192Z,102053.03
2022-10-04T10:22:22.478Z,102047.66
2022-10-04T10:25:02.335Z,102041.03
2022-10-04T10:27:47.230Z,102031.34
2022-10-04T10:30:35.460Z,102028.19
2022-10-04T10:33:30.271Z,102010.84
2022-10-04T10:36:23.451Z,102023.66
2022-10-04T10:39:31.620Z,102012.69
2022-10-04T10:42:16.617Z,102029.25
2022-10-04T10:45:14.033Z,102042.16
2022-10-04T10:48:15.818Z,102047.97
2022-10-04T10:51:08.013Z,102043.13
2022-10-04T10:53:55.638Z,102052.63
2022-10-04T10:56:46.909Z,102049.88
2022-10-04T10:59:35.307Z,102049.38
2022-10-04T11:02:04.487Z,102046.75
2022-10-04T11:04:46.038Z,102039.22
2022-10-04T11:07:35.800Z,102032.66
2022-10-04T11:10:05.066Z,102024.66
2022-10-04T11:12:44.834Z,102011.09
2022-10-04T11:15:32.826Z,102012.72
2022-10-04T11:18:17.613Z,101999.03
2022-10-04T11:21:26.356Z,102011.41
2022-10-04T11:23:55.551Z,102008.56
2022-10-04T11:26:36.926Z,102009.19
2022-10-04T11:29:23.582Z,102011.25
2022-10-04T11:32:02.148Z,102012.22
2022-10-04T11:34:59.633Z,101997.81
2022-10-04T11:37:57.513Z,102000.88
2022-10-04T11:40:42.361Z,101981.75
2022-10-04T11:43:29.387Z,101989.31
2022-10-04T11:46:10.835Z,101987.78
2022-10-04T11:48:52.324Z,101979.28
2022-10-04T11:51:40.142Z,101977.69
2022-10-04T11:54:06.441Z,101969.38
2022-10-04T11:57:09.987Z,101976.44
2022-10-04T11:59:55.913Z,101974.56
2022-10-04T12:02:59.543Z,101966.59
2022-10-04T12:05:48.132Z,101969.25
2022-10-04T12:08:29.034Z,101967.94
2022-10-04T12:11:17.196Z,101970.13
2022-10-04T12:14:14.155Z,101958.47
2022-10-04T12:17:11.510Z,101964.53
2022-10-04T12:20:19.090Z,101966.13
2022-10-04T12:23:05.694Z,101945.22
2022-10-04T12:25:52.117Z,101951.56
2022-10-04T12:28:48.907Z,101959.19
2022-10-04T12:31:19.305Z,101929.16
2022-10-04T12:33:51.526Z,101931.25
2022-10-04T12:36:40.859Z,101935.66
2022-10-04T12:39:19.425Z,101921.63
2022-10-04T12:42:07.739Z,101924.47
2022-10-04T12:44:40.875Z,101910.53
2022-10-04T12:47:44.926Z,101918.31
2022-10-04T12:50:24.355Z,101914.06
2022-10-04T12:53:00.653Z,101906.00
2022-10-04T12:55:55.003Z,101911.72
2022-10-04T12:58:47.433Z,101904.69
2022-10-04T13:01:29.147Z,101906.44
2022-10-04T13:04:04.543Z,101891.31
2022-10-04T13:06:51.459Z,101900.66
2022-10-04T13:10:12.086Z,101906.06
2022-10-04T13:13:15.461Z,101900.53
2022-10-04T13:18:45.225Z,101883.88
2022-10-04T13:21:20.852Z,101896.38
2022-10-04T13:24:22.026Z,101892.34
2022-10-04T13:27:02.626Z,101900.41
2022-10-04T13:29:41.199Z,101886.41
2022-10-04T13:32:25.985Z,101889.63
2022-10-04T13:35:05.277Z,101886.84
2022-10-04T13:37:42.135Z,101890.00
2022-10-04T13:40:28.522Z,101899.34
2022-10-04T13:43:19.827Z,101894.81
2022-10-04T13:45:58.503Z,101889.75
2022-10-04T13:48:46.674Z,101869.13
2022-10-04T13:51:24.930Z,101865.19
2022-10-04T13:54:12.581Z,101854.72
2022-10-04T13:56:58.506Z,101846.19
2022-10-04T13:59:35.433Z,101860.03
2022-10-04T14:02:23.465Z,101843.28
2022-10-04T14:05:10.622Z,101835.53
2022-10-04T14:08:05.416Z,101835.63
2022-10-04T14:10:43.364Z,101827.09
2022-10-04T14:13:34.606Z,101828.63
2022-10-04T14:16:38.727Z,101816.13
2022-10-04T14:19:40.240Z,101807.75
2022-10-04T14:22:44.027Z,101815.38
2022-10-04T14:25:41.651Z,101809.59
2022-10-04T14:28:26.601Z,101820.69
2022-10-04T14:31:15.724Z,101821.25
2022-10-04T14:34:21.597Z,101823.75
2022-10-04T14:37:09.746Z,101820.56
2022-10-04T14:40:05.363Z,101835.44
2022-10-04T14:42:56.659Z,101838.63
2022-10-04T14:45:32.152Z,101838.66
2022-10-04T14:48:24.773Z,101842.72
2022-10-04T14:51:14.980Z,101846.91
2022-10-04T14:53:49.633Z,101838.13
2022-10-04T14:56:18.908Z,101830.44
2022-10-04T14:59:00.921Z,101824.00
2022-10-04T15:01:28.420Z,101824.94
2022-10-04T15:04:22.278Z,101833.25
2022-10-04T15:06:55.738Z,101837.63
2022-10-04T15:09:32.221Z,101826.97
2022-10-04T15:12:36.489Z,101835.25
2022-10-04T15:15:10.184Z,101848.97
2022-10-04T15:17:43.256Z,101842.97
2022-10-04T15:20:24.863Z,101840.41
2022-10-04T15:23:07.087Z,101836.25
2022-10-04T15:25:38.197Z,101838.00
2022-10-04T15:28:13.110Z,101839.03
2022-10-04T15:31:00.553Z,101816.53
2022-10-04T15:34:06.785Z,101827.41
2022-10-04T15:37:14.587Z,101832.47
2022-10-04T15:39:58.319Z,101829.81
2022-10-04T15:42:29.163Z,101825.56
2022-10-04T15:45:46.273Z,101828.78
2022-10-04T15:48:27.989Z,101829.59
2022-10-04T15:51:09.181Z,101834.66
2022-10-04T15:54:05.629Z,101824.75
2022-10-04T15:56:41.098Z,101831.44
2022-10-04T15:59:25.865Z,101842.50
2022-10-04T16:02:07.214Z,101834.91
2022-10-04T16:05:06.600Z,101832.03
2022-10-04T16:08:26.770Z,101817.63
2022-10-04T16:10:59.482Z,101820.03
2022-10-04T16:13:38.027Z,101823.00
2022-10-04T16:16:16.844Z,101802.03
2022-10-04T16:19:08.159Z,101808.22
2022-10-04T16:21:49.658Z,101805.88
2022-10-04T16:24:21.728Z,101830.84
2022-10-04T16:26:48.460Z,101825.13
2022-10-04T16:29:42.506Z,101831.09
2022-10-04T16:32:17.633Z,101831.59
2022-10-04T16:34:43.914Z,101825.81
2022-10-04T16:37:10.158Z,101818.97
2022-10-04T16:39:49.151Z,101821.13
2022-10-04T16:42:17.598Z,101818.72
2022-10-04T16:44:55.066Z,101825.44
2022-10-04T16:47:31.242Z,101828.00
2022-10-04T16:50:00.775Z,101832.97
2022-10-04T16:52:46.666Z,101838.69
2022-10-04T16:55:34.620Z,101835.94
2022-10-04T16:58:26.061Z,101832.78
2022-10-04T17:01:23.401Z,101834.22
2022-10-04T17:03:55.874Z,101835.97
2022-10-04T17:06:47.623Z,101822.50
2022-10-04T17:09:23.362Z,101828.63
2022-10-04T17:12:02.233Z,101834.34
2022-10-04T17:15:07.939Z,101837.25
2022-10-04T17:17:56.252Z,101841.13
2022-10-04T17:20:25.441Z,101838.94
2022-10-04T17:23:07.325Z,101850.78
2022-10-04T17:25:47.365Z,101856.91
2022-10-04T17:28:23.554Z,101844.16
2022-10-04T17:30:56.900Z,101848.63
2022-10-04T17:33:40.322Z,101846.97
2022-10-04T17:36:43.148Z,101855.94
2022-10-04T17:39:41.340Z,101835.03
2022-10-04T17:42:37.870Z,101833.63
2022-10-04T17:45:17.317Z,101817.81
2022-10-04T17:48:05.580Z,101835.84
2022-10-04T17:51:14.153Z,101822.44
2022-10-04T17:53:45.089Z,101824.47
2022-10-04T17:56:12.978Z,101824.06
2022-10-04T17:58:50.774Z,101832.78
2022-10-04T18:01:27.055Z,101840.31
2022-10-04T18:04:06.153Z,101837.47
2022-10-04T18:06:49.124Z,101844.53
2022-10-04T18:09:50.518Z,101848.38
2022-10-04T18:12:33.857Z,101834.00
2022-10-04T18:15:20.463Z,101833.41
2022-10-04T18:17:50.295Z,101841.31
2022-10-04T18:20:28.000Z,101839.28
2022-10-04T18:23:14.178Z,101842.72
2022-10-04T18:25:41.793Z,101833.34
2022-10-04T18:28:08.129Z,101812.88
2022-10-04T18:30:50.541Z,101821.75
2022-10-04T18:33:25.841Z,101819.13
2022-10-04T18:36:03.183Z,101815.47
2022-10-04T18:38:31.519Z,101812.03
2022-10-04T18:41:02.860Z,101810.19
2022-10-04T18:43:30.952Z,101822.16
2022-10-04T18:46:01.235Z,101819.56
2022-10-04T18:48:59.180Z,101841.44
2022-10-04T18:51:50.985Z,101840.22
2022-10-04T18:54:32.773Z,101819.97
2022-10-04T18:57:05.311Z,101833.72
2022-10-04T18:59:57.949Z,101829.03
2022-10-04T19:02:55.697Z,101815.44
2022-10-04T19:05:49.082Z,101821.50
2022-10-04T19:08:48.686Z,101821.72
2022-10-04T19:11:24.134Z,101824.16
2022-10-04T19:14:08.753Z,101817.03
2022-10-04T19:16:44.288Z,101806.72
2022-10-04T19:19:32.115Z,101825.16
2022-10-04T19:22:06.518Z,101816.22
2022-10-04T19:25:01.017Z,101813.59
2022-10-04T19:27:35.711Z,101798.34
2022-10-04T19:30:04.151Z,101794.91
2022-10-04T19:32:47.176Z,101787.84
2022-10-04T19:35:49.405Z,101791.66
2022-10-04T19:38:40.431Z,101767.13
2022-10-04T19:41:14.609Z,101767.97
2022-10-04T19:44:25.400Z,101773.25
2022-10-04T19:46:59.712Z,101763.16
2022-10-04T19:49:52.499Z,101758.06
2022-10-04T19:52:23.742Z,101761.91
2022-10-04T19:54:57.802Z,101764.38
2022-10-04T19:57:36.981Z,101782.78
2022-10-04T20:00:13.773Z,101760.91
2022-10-04T20:02:47.416Z,101784.56
2022-10-04T20:05:19.843Z,101786.81
2022-10-04T20:07:51.222Z,101778.47
2022-10-04T20:10:36.914Z,101788.81
2022-10-04T20:13:12.849Z,101787.84
2022-10-04T20:15:39.097Z,101792.88
2022-10-04T20:18:33.249Z,101786.56
2022-10-04T20:20:59.535Z,101796.31
2022-10-04T20:23:37.938Z,101786.56
2022-10-04T20:26:05.760Z,101782.06
2022-10-04T20:28:32.123Z,101771.56
2022-10-04T20:31:02.193Z,101771.97
2022-10-04T20:33:34.495Z,101776.84
2022-10-04T20:36:05.996Z,101777.22
2022-10-04T20:38:51.188Z,101773.34
2022-10-04T20:41:29.735Z,101788.78
2022-10-04T20:43:58.797Z,101769.31
2022-10-04T20:46:28.912Z,101763.84
2022-10-04T20:48:55.472Z,101776.34
2022-10-04T20:51:22.189Z,101770.63
2022-10-04T20:53:49.120Z,101770.00
2022-10-04T20:56:46.586Z,101760.41
2022-10-04T20:59:16.354Z,101759.56
2022-10-04T21:01:42.742Z,101748.94
2022-10-04T21:04:23.888Z,101758.88
2022-10-04T21:06:54.748Z,101770.16
2022-10-04T21:09:21.383Z,101777.09
2022-10-04T21:11:51.234Z,101775.25
2022-10-04T21:14:28.360Z,101789.06
2022-10-04T21:17:02.677Z,101785.22
2022-10-04T21:19:33.564Z,101789.44
2022-10-04T21:22:04.563Z,101787.81
2022-10-04T21:24:42.837Z,101791.03
2022-10-04T21:27:11.751Z,101786.78
2022-10-04T21:29:39.430Z,101770.75
2022-10-04T21:32:06.241Z,101772.41
2022-10-04T21:34:52.393Z,101770.75
2022-10-04T21:37:19.332Z,101782.91
2022-10-04T21:39:45.875Z,101777.69
2022-10-04T21:42:12.321Z,101796.31
2022-10-04T21:44:38.644Z,101792.47
2022-10-04T21:47:05.039Z,101785.34
2022-10-04T21:49:31.343Z,101770.72
2022-10-04T21:51:57.646Z,101777.19
2022-10-04T21:54:24.030Z,101769.47
2022-10-04T21:56:50.323Z,101767.63
2022-10-04T21:59:16.671Z,101776.44
2022-10-04T22:01:43.019Z,101765.47
2022-10-04T22:04:09.352Z,101773.19
2022-10-04T22:06:35.668Z,101786.59
2022-10-04T22:09:01.962Z,101791.88
2022-10-04T22:11:28.299Z,101787.38
2022-10-04T22:13:54.619Z,101781.31
2022-10-04T22:16:21.002Z,101761.66
2022-10-04T22:18:47.365Z,101768.34
2022-10-04T22:21:13.842Z,101767.31
2022-10-04T22:23:42.372Z,101782.53
2022-10-04T22:26:18.471Z,101771.34
2022-10-04T22:28:50.694Z,101757.41
2022-10-04T22:31:20.545Z,101767.13
2022-10-04T22:33:49.740Z,101771.81
2022-10-04T22:36:15.998Z,101770.03
2022-10-04T22:38:57.404Z,101772.00
2022-10-04T22:41:27.585Z,101773.69
2022-10-04T22:43:57.258Z,101766.94
2022-10-04T22:46:28.202Z,101755.19
2022-10-04T22:48:54.489Z,101751.28
2022-10-04T22:51:20.795Z,101752.13
2022-10-04T22:53:47.779Z,101750.22
2022-10-04T22:56:14.913Z,101743.94
2022-10-04T22:58:42.071Z,101732.31
2022-10-04T23:01:18.609Z,101709.88
2022-10-04T23:03:46.816Z,101739.81
2022-10-04T23:06:13.413Z,101720.38
2022-10-04T23:08:43.227Z,101727.63
2022-10-04T23:11:11.118Z,101732.91
2022-10-04T23:13:38.273Z,101733.94
2022-10-04T23:16:19.245Z,101720.75
2022-10-04T23:18:45.667Z,101719.56
2022-10-04T23:21:26.019Z,101733.78
2022-10-04T23:23:53.514Z,101710.28
2022-10-04T23:26:27.285Z,101709.03
2022-10-04T23:28:53.623Z,101731.00
2022-10-04T23:31:24.096Z,101728.19
2022-10-04T23:33:51.828Z,101734.66
2022-10-04T23:36:18.766Z,101721.06
2022-10-04T23:38:51.856Z,101735.44
2022-10-04T23:41:19.512Z,101735.69
2022-10-04T23:43:48.790Z,101735.50
2022-10-04T23:46:19.347Z,101721.94
2022-10-04T23:48:46.935Z,101724.16
2022-10-04T23:51:18.290Z,101731.88
2022-10-04T23:53:48.041Z,101712.19
2022-10-04T23:56:21.863Z,101726.13
2022-10-04T23:58:49.829Z,101711.53
